Huntersville, Indiana
Current Conditions -  °F | °C
As of 11:35 AM on Thursday 30 Oct 2014 (Local Time) from KI67 Reporting Station
Scattered Clouds Scattered Clouds  
Wind Chill: 50°   Ceiling: Unl
Heat Index: 50°   Visibility: 10mi
Dew Point: 32°   Wind: 7mph
Humidity: 50%   Direction: 90°E
Pressure: 30.16"   Gusts: NA
Location:  39.3079°N, 85.2177°W
Report Text: KI67 301535Z AUTO 09006KT 10SM SCT036 10/00 A3016 RMK AO1
Loading
Personal Weather Stations






























Interactive Weather Map
Tropical Storm Tracking
New forecast layout! Learn more

10-Day Weather Forecast

Advertisements
Track Severe Weather on mobile